createdAt,value
2017-08-29T00:00:39.786Z,58.30
2017-08-29T00:03:07.377Z,44.00
2017-08-29T00:05:34.926Z,46.37
2017-08-29T00:08:02.505Z,43.70
2017-08-29T00:10:30.048Z,47.73
2017-08-29T00:12:57.593Z,45.20
2017-08-29T00:15:25.201Z,46.20
2017-08-29T00:17:52.748Z,54.00
2017-08-29T00:20:20.292Z,51.30
2017-08-29T00:22:47.909Z,54.53
2017-08-29T00:25:17.323Z,49.35
2017-08-29T00:27:44.860Z,48.23
2017-08-29T00:30:12.447Z,44.53
2017-08-29T00:32:39.995Z,46.63
2017-08-29T00:35:07.536Z,49.50
2017-08-29T00:37:35.149Z,44.70
2017-08-29T00:40:03.187Z,47.47
2017-08-29T00:42:30.746Z,42.90
2017-08-29T00:44:58.321Z,44.63
2017-08-29T00:47:25.873Z,47.03
2017-08-29T00:49:53.418Z,45.85
2017-08-29T00:52:21.001Z,40.77
2017-08-29T00:54:48.552Z,40.77
2017-08-29T00:57:16.477Z,44.60
2017-08-29T00:59:44.838Z,46.33
2017-08-29T01:02:12.385Z,51.00
2017-08-29T01:04:39.925Z,41.70
2017-08-29T01:07:07.489Z,46.93
2017-08-29T01:09:35.025Z,41.60
2017-08-29T01:12:02.572Z,45.17
2017-08-29T01:14:30.152Z,46.50
2017-08-29T01:16:57.693Z,40.33
2017-08-29T01:19:26.185Z,42.93
2017-08-29T01:21:53.781Z,45.27
2017-08-29T01:24:21.320Z,50.10
2017-08-29T01:26:48.864Z,49.47
2017-08-29T01:29:17.757Z,52.22
2017-08-29T01:31:45.308Z,51.00
2017-08-29T01:34:14.576Z,46.30
2017-08-29T01:36:42.146Z,43.30
2017-08-29T01:39:10.456Z,42.70
2017-08-29T01:41:38.661Z,42.63
2017-08-29T01:44:06.270Z,45.53
2017-08-29T01:46:33.822Z,45.03
2017-08-29T01:49:02.136Z,45.20
2017-08-29T01:51:29.773Z,39.33
2017-08-29T01:53:57.312Z,41.17
2017-08-29T01:56:24.853Z,48.40
2017-08-29T01:58:52.421Z,49.75
2017-08-29T02:01:19.964Z,43.20
2017-08-29T02:03:47.513Z,41.07
2017-08-29T02:06:16.521Z,42.80
2017-08-29T02:08:44.065Z,48.03
2017-08-29T02:11:11.604Z,48.93
2017-08-29T02:13:39.178Z,44.53
2017-08-29T02:16:06.729Z,38.23
2017-08-29T02:18:34.277Z,44.07
2017-08-29T02:21:01.844Z,41.20
2017-08-29T02:23:29.392Z,48.30
2017-08-29T02:25:56.940Z,44.00
2017-08-29T02:28:24.552Z,44.43
2017-08-29T02:30:52.097Z,36.60
2017-08-29T02:33:19.642Z,47.67
2017-08-29T02:35:47.250Z,43.17
2017-08-29T02:38:16.418Z,40.35
2017-08-29T02:40:43.958Z,38.00
2017-08-29T02:43:11.964Z,43.22
2017-08-29T02:45:39.506Z,38.40
2017-08-29T02:48:07.058Z,39.90
2017-08-29T02:50:34.661Z,38.03
2017-08-29T02:53:02.205Z,42.13
2017-08-29T02:55:29.758Z,35.97
2017-08-29T02:57:57.337Z,36.60
2017-08-29T03:00:24.885Z,34.43
2017-08-29T03:02:52.442Z,37.50
2017-08-29T03:05:20.037Z,32.75
2017-08-29T03:07:47.598Z,39.57
2017-08-29T03:10:16.434Z,39.83
2017-08-29T03:12:44.054Z,36.63
2017-08-29T03:15:12.370Z,36.20
2017-08-29T03:17:39.921Z,38.13
2017-08-29T03:20:07.502Z,37.40
2017-08-29T03:22:35.053Z,50.73
2017-08-29T03:25:02.612Z,37.43
2017-08-29T03:27:30.185Z,35.33
2017-08-29T03:29:57.729Z,34.37
2017-08-29T03:32:25.276Z,37.13
2017-08-29T03:34:52.882Z,30.17
2017-08-29T03:37:20.431Z,29.12
2017-08-29T03:39:47.974Z,29.47
2017-08-29T03:42:17.338Z,28.67
2017-08-29T03:44:45.231Z,28.00
2017-08-29T03:47:13.711Z,32.37
2017-08-29T03:49:41.307Z,28.73
2017-08-29T03:52:08.853Z,34.40
2017-08-29T03:54:36.401Z,29.58
2017-08-29T03:57:04.177Z,29.17
2017-08-29T03:59:31.734Z,27.07
2017-08-29T04:01:59.286Z,27.47
2017-08-29T04:04:26.856Z,26.20
2017-08-29T04:06:54.396Z,32.90
2017-08-29T04:09:21.940Z,32.43
2017-08-29T04:11:49.516Z,29.75
2017-08-29T04:14:17.069Z,30.37
2017-08-29T04:16:44.617Z,31.25
2017-08-29T04:19:12.213Z,26.47
2017-08-29T04:21:39.761Z,27.07
2017-08-29T04:24:07.309Z,33.97
2017-08-29T04:26:34.893Z,30.13
2017-08-29T04:29:02.438Z,34.67
2017-08-29T04:31:29.989Z,29.33
2017-08-29T04:33:57.560Z,29.17
2017-08-29T04:36:25.120Z,27.77
2017-08-29T04:38:52.664Z,29.27
2017-08-29T04:41:20.252Z,30.15
2017-08-29T04:43:47.806Z,27.13
2017-08-29T04:46:16.071Z,28.58
2017-08-29T04:48:43.668Z,26.97
2017-08-29T04:51:11.217Z,25.50
2017-08-29T04:53:38.769Z,30.60
2017-08-29T04:56:06.346Z,30.97
2017-08-29T04:58:33.902Z,28.47
2017-08-29T05:01:01.449Z,36.05
2017-08-29T05:03:29.044Z,32.40
2017-08-29T05:05:56.590Z,28.30
2017-08-29T05:08:24.162Z,30.57
2017-08-29T05:10:51.756Z,26.27
2017-08-29T05:13:20.074Z,39.37
2017-08-29T05:15:47.621Z,26.50
2017-08-29T05:18:17.269Z,25.83
2017-08-29T05:20:44.812Z,29.23
2017-08-29T05:23:12.353Z,26.93
2017-08-29T05:25:39.961Z,26.77
2017-08-29T05:28:07.504Z,35.30
2017-08-29T05:30:35.049Z,27.43
2017-08-29T05:33:02.622Z,41.70
2017-08-29T05:35:30.174Z,28.93
2017-08-29T05:37:57.729Z,29.37
2017-08-29T05:40:25.302Z,27.70
2017-08-29T05:42:52.840Z,28.40
2017-08-29T05:45:20.389Z,31.58
2017-08-29T05:47:48.601Z,29.63
2017-08-29T05:50:17.261Z,29.23
2017-08-29T05:52:44.809Z,23.53
2017-08-29T05:55:12.419Z,26.40
2017-08-29T05:57:39.967Z,29.70
2017-08-29T06:00:07.526Z,30.85
2017-08-29T06:02:35.105Z,32.53
2017-08-29T06:05:02.646Z,30.40
2017-08-29T06:07:30.198Z,27.80
2017-08-29T06:09:57.801Z,23.97
2017-08-29T06:12:25.350Z,25.33
2017-08-29T06:14:52.892Z,22.77
2017-08-29T06:17:20.465Z,25.02
2017-08-29T06:19:48.009Z,26.20
2017-08-29T06:22:16.425Z,23.10
2017-08-29T06:24:44.802Z,25.27
2017-08-29T06:27:12.353Z,23.97
2017-08-29T06:29:39.897Z,24.93
2017-08-29T06:32:07.605Z,25.70
2017-08-29T06:34:35.159Z,24.23
2017-08-29T06:37:02.721Z,24.97
2017-08-29T06:39:30.304Z,20.00
2017-08-29T06:41:57.880Z,24.03
2017-08-29T06:44:25.438Z,18.80
2017-08-29T06:46:53.047Z,19.90
2017-08-29T06:49:20.938Z,21.03
2017-08-29T06:51:48.484Z,19.33
2017-08-29T06:54:16.605Z,14.33
2017-08-29T06:56:44.144Z,14.97
2017-08-29T06:59:11.688Z,16.00
2017-08-29T07:01:39.300Z,13.23
2017-08-29T07:04:07.210Z,14.03
2017-08-29T07:06:34.753Z,17.43
2017-08-29T07:09:02.316Z,11.63
2017-08-29T07:11:29.860Z,11.90
2017-08-29T07:13:57.421Z,14.70
2017-08-29T07:16:25.788Z,11.83
2017-08-29T07:18:53.341Z,11.30
2017-08-29T07:21:20.881Z,10.80
2017-08-29T07:23:48.453Z,13.93
2017-08-29T07:26:17.634Z,11.65
2017-08-29T07:28:45.186Z,10.93
2017-08-29T07:31:13.672Z,10.37
2017-08-29T07:33:41.221Z,10.37
2017-08-29T07:36:08.760Z,10.10
2017-08-29T07:38:36.526Z,9.67
2017-08-29T07:41:04.072Z,14.40
2017-08-29T07:43:31.619Z,9.50
2017-08-29T07:45:59.952Z,10.03
2017-08-29T07:48:27.490Z,9.80
2017-08-29T07:50:55.480Z,9.53
2017-08-29T07:53:23.045Z,9.90
2017-08-29T07:55:50.599Z,14.30
2017-08-29T07:58:18.141Z,9.67
2017-08-29T08:00:45.732Z,10.30
2017-08-29T08:03:15.329Z,10.85
2017-08-29T08:05:42.868Z,9.33
2017-08-29T08:08:10.495Z,10.30
2017-08-29T08:10:38.044Z,12.80
2017-08-29T08:13:05.641Z,15.00
2017-08-29T08:15:33.204Z,12.15
2017-08-29T08:18:00.745Z,9.27
2017-08-29T08:20:28.285Z,9.40
2017-08-29T08:22:55.882Z,9.17
2017-08-29T08:25:23.431Z,10.27
2017-08-29T08:27:51.758Z,11.00
2017-08-29T08:30:19.345Z,10.30
2017-08-29T08:32:46.884Z,9.30
2017-08-29T08:35:15.482Z,9.95
2017-08-29T08:37:43.052Z,11.53
2017-08-29T08:40:10.797Z,9.70
2017-08-29T08:42:38.357Z,8.67
2017-08-29T08:45:05.952Z,7.97
2017-08-29T08:47:34.266Z,10.40
2017-08-29T08:50:01.809Z,8.30
2017-08-29T08:52:29.705Z,15.85
2017-08-29T08:54:57.245Z,9.10
2017-08-29T08:57:24.788Z,9.27
2017-08-29T08:59:52.352Z,9.13
2017-08-29T09:02:19.909Z,8.57
2017-08-29T09:04:48.221Z,8.45
2017-08-29T09:07:16.476Z,9.87
2017-08-29T09:09:44.021Z,8.10
2017-08-29T09:12:11.565Z,10.10
2017-08-29T09:14:40.097Z,8.47
2017-08-29T09:17:07.632Z,8.30
2017-08-29T09:19:35.173Z,7.97
2017-08-29T09:22:03.054Z,8.50
2017-08-29T09:24:31.372Z,11.98
2017-08-29T09:26:59.681Z,10.10
2017-08-29T09:29:27.273Z,7.60
2017-08-29T09:31:54.809Z,6.83
2017-08-29T09:34:22.368Z,7.00
2017-08-29T09:36:49.946Z,7.57
2017-08-29T09:39:17.543Z,7.57
2017-08-29T09:41:45.098Z,7.73
2017-08-29T09:44:13.593Z,8.57
2017-08-29T09:46:41.128Z,7.77
2017-08-29T09:49:08.673Z,9.00
2017-08-29T09:51:36.403Z,9.43
2017-08-29T09:54:03.998Z,9.77
2017-08-29T09:56:31.536Z,7.90
2017-08-29T09:58:59.113Z,14.30
2017-08-29T10:01:26.659Z,7.03
2017-08-29T10:03:54.195Z,6.83
2017-08-29T10:06:21.768Z,8.00
2017-08-29T10:08:49.307Z,13.13
2017-08-29T10:11:16.857Z,6.17
2017-08-29T10:13:44.456Z,5.82
2017-08-29T10:16:12.001Z,7.53
2017-08-29T10:18:39.544Z,6.53
2017-08-29T10:21:07.168Z,8.07
2017-08-29T10:23:34.709Z,6.40
2017-08-29T10:26:02.261Z,12.27
2017-08-29T10:28:30.604Z,6.45
2017-08-29T10:30:58.149Z,6.83
2017-08-29T10:33:25.917Z,10.63
2017-08-29T10:35:53.500Z,9.05
2017-08-29T10:38:21.041Z,9.15
2017-08-29T10:40:48.592Z,8.83
2017-08-29T10:43:16.510Z,8.50
2017-08-29T10:45:44.817Z,8.00
2017-08-29T10:48:12.358Z,8.97
2017-08-29T10:50:39.920Z,8.43
2017-08-29T10:53:09.256Z,9.37
2017-08-29T10:55:37.305Z,13.73
2017-08-29T10:58:04.898Z,7.50
2017-08-29T11:00:32.436Z,8.85
2017-08-29T11:02:59.973Z,8.50
2017-08-29T11:05:27.545Z,8.73
2017-08-29T11:07:55.084Z,9.50
2017-08-29T11:10:22.636Z,11.63
2017-08-29T11:12:50.197Z,8.30
2017-08-29T11:15:18.505Z,10.23
2017-08-29T11:17:46.049Z,10.37
2017-08-29T11:20:14.618Z,9.00
2017-08-29T11:22:42.157Z,8.83
2017-08-29T11:25:09.856Z,9.30
2017-08-29T11:27:37.469Z,10.20
2017-08-29T11:30:05.016Z,8.30
2017-08-29T11:32:32.565Z,8.57
2017-08-29T11:35:00.133Z,9.93
2017-08-29T11:37:27.686Z,10.13
2017-08-29T11:39:55.229Z,10.03
2017-08-29T11:42:22.845Z,15.60
2017-08-29T11:44:50.381Z,9.47
2017-08-29T11:47:17.925Z,10.33
2017-08-29T11:49:45.485Z,8.00
2017-08-29T11:52:14.622Z,8.38
2017-08-29T11:54:42.155Z,10.00
2017-08-29T11:57:10.224Z,9.23
2017-08-29T11:59:37.772Z,8.87
2017-08-29T12:02:05.314Z,8.73
2017-08-29T12:04:33.225Z,9.07
2017-08-29T12:07:00.765Z,9.30
2017-08-29T12:09:28.305Z,9.10
2017-08-29T12:11:55.880Z,10.03
2017-08-29T12:14:23.417Z,8.30
2017-08-29T12:16:50.960Z,8.33
2017-08-29T12:19:18.525Z,10.32
2017-08-29T12:21:46.060Z,9.13
2017-08-29T12:24:15.316Z,7.83
2017-08-29T12:26:42.908Z,9.70
2017-08-29T12:29:10.453Z,8.68
2017-08-29T12:31:38.003Z,8.40
2017-08-29T12:34:05.676Z,9.20
2017-08-29T12:36:33.220Z,8.73
2017-08-29T12:39:00.765Z,9.23
2017-08-29T12:41:28.361Z,8.50
2017-08-29T12:43:55.901Z,9.07
2017-08-29T12:46:23.437Z,9.13
2017-08-29T12:48:51.035Z,9.90
2017-08-29T12:51:18.582Z,9.13
2017-08-29T12:53:46.128Z,9.43
2017-08-29T12:56:15.502Z,9.38
2017-08-29T12:58:43.381Z,10.07
2017-08-29T13:01:10.941Z,9.63
2017-08-29T13:03:39.269Z,9.37
2017-08-29T13:06:06.801Z,9.03
2017-08-29T13:08:34.346Z,9.33
2017-08-29T13:11:01.954Z,13.70
2017-08-29T13:13:29.550Z,9.40
2017-08-29T13:15:57.852Z,10.30
2017-08-29T13:18:25.416Z,9.97
2017-08-29T13:20:52.952Z,8.97
2017-08-29T13:23:20.496Z,9.20
2017-08-29T13:25:48.065Z,10.40
2017-08-29T13:28:16.417Z,13.87
2017-08-29T13:30:43.988Z,9.40
2017-08-29T13:33:11.572Z,9.50
2017-08-29T13:35:39.877Z,9.67
2017-08-29T13:38:07.425Z,9.33
2017-08-29T13:40:35.512Z,9.20
2017-08-29T13:43:03.061Z,9.60
2017-08-29T13:45:30.995Z,9.97
2017-08-29T13:47:58.582Z,14.80
2017-08-29T13:50:26.116Z,9.20
2017-08-29T13:52:53.657Z,9.03
2017-08-29T13:55:21.249Z,8.83
2017-08-29T13:57:48.786Z,9.40
2017-08-29T14:00:16.529Z,9.35
2017-08-29T14:02:44.129Z,11.03
2017-08-29T14:05:12.433Z,8.90
2017-08-29T14:07:40.741Z,9.57
2017-08-29T14:10:08.313Z,10.03
2017-08-29T14:12:35.861Z,13.30
2017-08-29T14:15:03.415Z,8.53
2017-08-29T14:17:31.009Z,9.68
2017-08-29T14:19:59.325Z,9.40
2017-08-29T14:22:26.866Z,9.07
2017-08-29T14:24:54.450Z,11.80
2017-08-29T14:27:22.006Z,12.47
2017-08-29T14:29:49.544Z,11.40
2017-08-29T14:32:17.876Z,8.90
2017-08-29T14:34:45.418Z,9.75
2017-08-29T14:37:25.118Z,9.93
2017-08-29T14:42:20.217Z,10.23
2017-08-29T14:44:47.829Z,9.10
2017-08-29T14:47:27.299Z,12.00
2017-08-29T14:49:54.876Z,13.53
2017-08-29T14:52:22.421Z,9.52
2017-08-29T14:54:49.960Z,8.70
2017-08-29T14:57:17.557Z,8.30
2017-08-29T14:59:45.088Z,9.27
2017-08-29T15:02:13.802Z,8.80
2017-08-29T15:04:41.369Z,11.30
2017-08-29T15:07:08.913Z,9.97
2017-08-29T15:09:36.448Z,11.20
2017-08-29T15:12:04.026Z,9.10
2017-08-29T15:14:32.362Z,9.53
2017-08-29T15:16:59.905Z,10.07
2017-08-29T15:19:28.273Z,9.00
2017-08-29T15:21:55.813Z,8.47
2017-08-29T15:24:23.353Z,8.67
2017-08-29T15:26:50.922Z,9.47
2017-08-29T15:29:18.462Z,8.90
2017-08-29T15:31:46.003Z,14.90
2017-08-29T15:34:15.468Z,13.20
2017-08-29T15:36:43.004Z,7.73
2017-08-29T15:39:10.545Z,8.50
2017-08-29T15:41:38.133Z,7.90
2017-08-29T15:44:05.694Z,8.00
2017-08-29T15:46:33.233Z,7.05
2017-08-29T15:49:01.301Z,12.20
2017-08-29T15:51:28.853Z,8.33
2017-08-29T15:53:56.392Z,8.00
2017-08-29T15:56:23.961Z,7.77
2017-08-29T15:58:51.522Z,7.75
2017-08-29T16:01:19.074Z,7.30
2017-08-29T16:03:47.350Z,10.60
2017-08-29T16:06:16.584Z,8.63
2017-08-29T16:08:44.126Z,8.07
2017-08-29T16:11:11.709Z,8.60
2017-08-29T16:13:39.356Z,10.83
2017-08-29T16:16:06.893Z,9.00
2017-08-29T16:18:34.453Z,8.50
2017-08-29T16:21:02.015Z,8.67
2017-08-29T16:23:29.577Z,7.53
2017-08-29T16:25:57.171Z,11.00
2017-08-29T16:28:24.740Z,9.00
2017-08-29T16:30:52.285Z,16.43
2017-08-29T16:33:20.398Z,8.55
2017-08-29T16:35:47.972Z,7.00
2017-08-29T16:38:16.412Z,8.50
2017-08-29T16:40:44.532Z,8.10
2017-08-29T16:43:12.075Z,7.53
2017-08-29T16:45:39.626Z,7.77
2017-08-29T16:48:07.225Z,8.20
2017-08-29T16:50:34.764Z,10.70
2017-08-29T16:53:02.305Z,11.37
2017-08-29T16:55:30.049Z,9.10
2017-08-29T16:57:57.596Z,12.10
2017-08-29T17:00:25.142Z,10.33
2017-08-29T17:02:52.709Z,7.43
2017-08-29T17:05:20.533Z,8.05
2017-08-29T17:07:48.847Z,12.30
2017-08-29T17:10:16.532Z,18.93
2017-08-29T17:12:44.077Z,8.00
2017-08-29T17:15:11.701Z,11.80
2017-08-29T17:17:39.290Z,12.43
2017-08-29T17:20:06.910Z,9.67
2017-08-29T17:22:34.472Z,8.32
2017-08-29T17:25:02.073Z,8.93
2017-08-29T17:27:29.702Z,9.87
2017-08-29T17:29:57.281Z,15.77
2017-08-29T17:32:24.902Z,9.35
2017-08-29T17:34:53.543Z,12.10
2017-08-29T17:37:23.868Z,9.60
2017-08-29T17:39:51.782Z,14.50
2017-08-29T17:42:19.326Z,8.63
2017-08-29T17:44:46.872Z,10.13
2017-08-29T17:47:16.289Z,20.33
2017-08-29T17:49:43.825Z,18.30
2017-08-29T17:52:11.421Z,11.97
2017-08-29T17:54:39.040Z,17.33
2017-08-29T17:57:06.594Z,10.10
2017-08-29T17:59:34.164Z,13.27
2017-08-29T18:02:01.765Z,23.30
2017-08-29T18:04:29.335Z,13.73
2017-08-29T18:06:57.305Z,12.20
2017-08-29T18:09:24.900Z,14.17
2017-08-29T18:11:52.474Z,12.27
2017-08-29T18:14:20.083Z,13.77
2017-08-29T18:16:48.482Z,17.47
2017-08-29T18:19:16.633Z,16.17
2017-08-29T18:21:44.295Z,18.00
2017-08-29T18:24:11.934Z,12.90
2017-08-29T18:26:39.520Z,20.85
2017-08-29T18:29:07.106Z,26.53
2017-08-29T18:31:34.713Z,23.50
2017-08-29T18:34:02.271Z,14.37
2017-08-29T18:36:30.295Z,12.97
2017-08-29T18:38:58.707Z,14.20
2017-08-29T18:41:26.338Z,12.33
2017-08-29T18:43:53.893Z,16.10
2017-08-29T18:46:22.270Z,13.20
2017-08-29T18:48:49.845Z,14.90
2017-08-29T18:51:17.435Z,12.63
2017-08-29T18:53:45.017Z,11.97
2017-08-29T18:56:12.846Z,12.40
2017-08-29T18:58:40.467Z,11.57
2017-08-29T19:01:08.849Z,16.67
2017-08-29T19:03:36.405Z,12.15
2017-08-29T19:06:04.014Z,13.40
2017-08-29T19:08:32.134Z,12.57
2017-08-29T19:10:59.753Z,13.40
2017-08-29T19:13:27.294Z,13.80
2017-08-29T19:15:54.863Z,14.27
2017-08-29T19:18:22.406Z,13.63
2017-08-29T19:20:50.237Z,14.40
2017-08-29T19:23:17.850Z,12.90
2017-08-29T19:25:45.406Z,14.97
2017-08-29T19:28:15.329Z,14.05
2017-08-29T19:30:42.892Z,14.27
2017-08-29T19:33:10.444Z,15.83
2017-08-29T19:35:38.014Z,16.77
2017-08-29T19:38:05.613Z,20.50
2017-08-29T19:40:33.198Z,14.52
2017-08-29T19:43:00.745Z,14.33
2017-08-29T19:45:28.347Z,13.52
2017-08-29T19:47:55.894Z,14.00
2017-08-29T19:50:23.532Z,16.75
2017-08-29T19:52:51.877Z,15.20
2017-08-29T19:55:19.424Z,19.77
2017-08-29T19:57:46.971Z,20.07
2017-08-29T20:00:16.285Z,14.80
2017-08-29T20:02:43.833Z,16.70
2017-08-29T20:05:11.383Z,15.00
2017-08-29T20:07:39.192Z,14.47
2017-08-29T20:10:06.897Z,15.90
2017-08-29T20:12:34.438Z,17.33
2017-08-29T20:15:02.049Z,15.13
2017-08-29T20:17:29.597Z,17.33
2017-08-29T20:19:57.140Z,17.00
2017-08-29T20:22:24.716Z,17.60
2017-08-29T20:24:52.277Z,17.77
2017-08-29T20:27:19.847Z,16.85
2017-08-29T20:29:47.456Z,16.10
2017-08-29T20:32:17.208Z,14.98
2017-08-29T20:34:44.782Z,15.37
2017-08-29T20:37:12.394Z,15.47
2017-08-29T20:39:39.941Z,14.10
2017-08-29T20:42:07.528Z,14.53
2017-08-29T20:44:35.117Z,14.57
2017-08-29T20:47:03.269Z,13.97
2017-08-29T20:49:30.818Z,16.30
2017-08-29T20:51:58.422Z,13.90
2017-08-29T20:54:25.968Z,16.13
2017-08-29T20:56:53.516Z,15.80
2017-08-29T20:59:21.089Z,16.10
2017-08-29T21:01:48.645Z,16.20
2017-08-29T21:04:17.232Z,23.92
2017-08-29T21:06:44.805Z,16.20
2017-08-29T21:09:12.358Z,16.07
2017-08-29T21:11:40.602Z,25.37
2017-08-29T21:14:08.193Z,19.60
2017-08-29T21:16:35.737Z,16.90
2017-08-29T21:19:03.290Z,16.47
2017-08-29T21:21:30.888Z,15.63
2017-08-29T21:23:58.442Z,16.02
2017-08-29T21:26:25.998Z,19.23
2017-08-29T21:28:53.589Z,17.73
2017-08-29T21:31:21.132Z,17.50
2017-08-29T21:33:48.674Z,18.07
2017-08-29T21:36:16.535Z,16.13
2017-08-29T21:38:44.077Z,18.23
2017-08-29T21:41:11.625Z,17.33
2017-08-29T21:43:39.196Z,17.97
2017-08-29T21:46:06.741Z,22.70
2017-08-29T21:48:34.285Z,18.97
2017-08-29T21:51:01.857Z,18.73
2017-08-29T21:53:29.405Z,18.90
2017-08-29T21:55:56.948Z,22.73
2017-08-29T21:58:24.537Z,21.03
2017-08-29T22:00:52.853Z,24.77
2017-08-29T22:03:20.410Z,24.12
2017-08-29T22:05:47.978Z,19.27
2017-08-29T22:08:16.553Z,18.35
2017-08-29T22:10:44.101Z,19.47
2017-08-29T22:13:12.309Z,19.83
2017-08-29T22:15:39.852Z,19.93
2017-08-29T22:18:07.402Z,24.80
2017-08-29T22:20:35.025Z,20.03
2017-08-29T22:23:03.337Z,19.80
2017-08-29T22:25:30.889Z,20.67
2017-08-29T22:27:58.509Z,20.23
2017-08-29T22:30:26.057Z,22.20
2017-08-29T22:32:53.605Z,18.47
2017-08-29T22:35:21.173Z,18.27
2017-08-29T22:37:48.720Z,18.90
2017-08-29T22:40:16.417Z,19.93
2017-08-29T22:42:44.177Z,20.20
2017-08-29T22:45:11.721Z,19.97
2017-08-29T22:47:39.269Z,21.00
2017-08-29T22:50:06.828Z,21.33
2017-08-29T22:52:34.394Z,19.70
2017-08-29T22:55:01.942Z,20.23
2017-08-29T22:57:29.513Z,18.17
2017-08-29T22:59:57.058Z,23.73
2017-08-29T23:02:24.600Z,22.93
2017-08-29T23:04:52.605Z,22.70
2017-08-29T23:07:20.152Z,22.35
2017-08-29T23:09:47.697Z,19.47
2017-08-29T23:12:16.448Z,20.67
2017-08-29T23:14:44.218Z,34.33
2017-08-29T23:17:12.532Z,18.50
2017-08-29T23:19:40.104Z,20.00
2017-08-29T23:22:07.646Z,19.90
2017-08-29T23:24:35.201Z,25.93
2017-08-29T23:27:02.801Z,17.63
2017-08-29T23:29:30.401Z,19.03
2017-08-29T23:31:57.953Z,17.77
2017-08-29T23:34:25.560Z,17.98
2017-08-29T23:36:53.105Z,17.43
2017-08-29T23:39:20.664Z,19.90
2017-08-29T23:41:48.241Z,22.70
2017-08-29T23:44:16.425Z,19.03
2017-08-29T23:46:43.969Z,20.60
2017-08-29T23:49:11.568Z,19.40
2017-08-29T23:51:39.109Z,20.37
2017-08-29T23:54:06.645Z,17.87
2017-08-29T23:56:34.228Z,19.17
2017-08-29T23:59:01.773Z,19.50
